Thunder radar more information blitzortung!


avis per Pluja more information rain snow radar


Visita la nostra xarxa de llocs de meteo:

Template documentation
and downloads

And another site



Rain From: 17-10-2018 23:00 Until: 18-10-2018 16:59 warning for: Rain Level: Yellow info button

Pagina Historial Weather Underground text

Diari Resum Desembre 1, 2017 Unitats:  Mètric    Imperial   Tant
« Previous Dia
SegĂźent Dia »
Diari Setmana Mensual Anual Personalitzada
  Maxima: Minima: Media:
Temperatura: -17.8 °C -17.2 °C -15.5 °C
Punt de rosada: -17.8 °C -22.6 °C -20 °C
Humitat: Humidity % 44 % 56 %
Wind Speed: 0 km/h 0 km/h 6.1 km/h
RĂ fegues de vent: 0 km/h - -
Vent:- - SSE
Pression baro: 0 hPa 34130.9 hPa -
Precipitacions: 0 mm    
Historical Graphs
 
 
Dades de taula per Desembre 1, 2017
Temps Temperatura Punt de rosada Pression baro Vent Wind Speed RĂ fegues de vent Humitat Rainfall Rate (Hourly)
-17.8 °C -17.8 °C 0 hPa Calm     Humidity % 0 mm
01:00 -15.9 °C -21.4 °C 34327.3 hPa Calm     48 % 0 mm
01:05 -15.9 °C -21.5 °C 34327.3 hPa Calm     48 % 0 mm
01:10 -15.9 °C -21.3 °C 34327.3 hPa Calm     49 % 0 mm
01:15 -15.9 °C -21.3 °C 34327.3 hPa Calm     49 % 0 mm
01:20 -15.9 °C -21.3 °C 34293.4 hPa Calm     49 % 0 mm
01:25 -15.9 °C -21.3 °C 34293.4 hPa Calm     49 % 0 mm
01:30 -15.9 °C -21.2 °C 34327.3 hPa Calm   2.6 km/h 50 % 0 mm
01:40 -15.9 °C -21.2 °C 34327.3 hPa North 2.6 km/h   50 % 0 mm
01:45 -15.8 °C -20.9 °C 34327.3 hPa NW 2.6 km/h 5.1 km/h 51 % 0 mm
01:50 -15.7 °C -20.8 °C 34293.4 hPa WNW 2.6 km/h 2.6 km/h 51 % 0 mm
01:55 -15.7 °C -20.8 °C 34293.4 hPa WSW 5.1 km/h 5.1 km/h 51 % 0 mm
02:00 -15.6 °C -20.6 °C 34293.4 hPa WSW 2.6 km/h 2.6 km/h 52 % 0 mm
02:05 -15.5 °C -20.5 °C 34293.4 hPa WNW 5.1 km/h 7.7 km/h 52 % 0 mm
02:10 -15.3 °C -20.2 °C 34293.4 hPa West 5.1 km/h 7.7 km/h 53 % 0 mm
02:15 -15.3 °C -20.2 °C 34293.4 hPa West 5.1 km/h 7.7 km/h 53 % 0 mm
02:20 -15.4 °C -20.2 °C 34256.2 hPa West 5.1 km/h 10.3 km/h 53 % 0 mm
02:25 -15.3 °C -20.2 °C 34256.2 hPa NW 2.6 km/h 5.1 km/h 53 % 0 mm
02:35 -15.4 °C -20.1 °C 34256.2 hPa Calm   2.6 km/h 54 % 0 mm
02:40 -15.4 °C -20.2 °C 34256.2 hPa ENE 5.1 km/h 5.1 km/h 54 % 0 mm
02:45 -15.5 °C -20.2 °C 34256.2 hPa Calm   5.1 km/h 54 % 0 mm
02:50 -15.5 °C -20.2 °C 34256.2 hPa WNW 5.1 km/h 5.1 km/h 54 % 0 mm
02:55 -15.4 °C -20.2 °C 34256.2 hPa WNW 2.6 km/h 2.6 km/h 54 % 0 mm
03:00 -15.4 °C -20.2 °C 34256.2 hPa WNW 5.1 km/h 5.1 km/h 54 % 0 mm
03:05 -15.4 °C -20.2 °C 34256.2 hPa West 5.1 km/h 5.1 km/h 54 % 0 mm
03:10 -15.4 °C -20.1 °C 34256.2 hPa West 5.1 km/h 5.1 km/h 54 % 0 mm
03:15 -15.3 °C -19.9 °C 34256.2 hPa West 2.6 km/h 7.7 km/h 55 % 0 mm
03:25 -15.3 °C -19.9 °C 34256.2 hPa West 5.1 km/h 5.1 km/h 55 % 0 mm
03:30 -15.3 °C -19.9 °C 34222.3 hPa Calm   5.1 km/h 55 % 0 mm
03:35 -15.3 °C -19.9 °C 34222.3 hPa WNW 5.1 km/h 5.1 km/h 55 % 0 mm
03:40 -15.3 °C -19.9 °C 34222.3 hPa WNW 5.1 km/h 5.1 km/h 55 % 0 mm
03:45 -15.3 °C -19.9 °C 34256.2 hPa WNW 2.6 km/h 5.1 km/h 55 % 0 mm
03:50 -15.3 °C -19.8 °C 34256.2 hPa Calm   5.1 km/h 56 % 0 mm
03:55 -15.3 °C -19.8 °C 34256.2 hPa Calm   2.6 km/h 56 % 0 mm
04:00 -15.3 °C -19.8 °C 34256.2 hPa Calm   5.1 km/h 56 % 0 mm
04:05 -15.4 °C -19.9 °C 34256.2 hPa NW 2.6 km/h 5.1 km/h 55 % 0 mm
04:10 -15.4 °C -19.9 °C 34256.2 hPa Calm   2.6 km/h 56 % 0 mm
04:15 -15.4 °C -19.8 °C 34256.2 hPa Calm   2.6 km/h 56 % 0 mm
04:20 -15.3 °C -19.8 °C 34256.2 hPa Calm   2.6 km/h 56 % 0 mm
04:25 -15.2 °C -19.6 °C 34256.2 hPa Calm     57 % 0 mm
04:30 -15.2 °C -19.6 °C 34222.3 hPa SE 2.6 km/h 2.6 km/h 57 % 0 mm
04:35 -15.3 °C -19.6 °C 34222.3 hPa East 2.6 km/h 2.6 km/h 57 % 0 mm
04:40 -15.3 °C -19.8 °C 34222.3 hPa NW 7.7 km/h 7.7 km/h 56 % 0 mm
04:45 -15.3 °C -19.8 °C 34222.3 hPa NW 7.7 km/h 7.7 km/h 56 % 0 mm
04:50 -15.3 °C -19.6 °C 34222.3 hPa NNW 7.7 km/h 7.7 km/h 57 % 0 mm
04:55 -15.4 °C -19.8 °C 34222.3 hPa NNW 5.1 km/h 5.1 km/h 57 % 0 mm
05:10 -15.6 °C -20 °C 34222.3 hPa North 2.6 km/h 7.7 km/h 56 % 0 mm
05:15 -15.5 °C -19.8 °C 34222.3 hPa NNW 7.7 km/h 7.7 km/h 57 % 0 mm
05:20 -15.5 °C -19.8 °C 34222.3 hPa NNW 2.6 km/h 5.1 km/h 57 % 0 mm
05:25 -15.4 °C -19.8 °C 34222.3 hPa North 2.6 km/h 5.1 km/h 57 % 0 mm
05:30 -15.5 °C -19.8 °C 34222.3 hPa NE 2.6 km/h 5.1 km/h 57 % 0 mm
05:35 -15.6 °C -19.9 °C 34222.3 hPa Calm   5.1 km/h 57 % 0 mm
05:40 -15.6 °C -19.8 °C 34222.3 hPa ENE 2.6 km/h   58 % 0 mm
05:45 -15.7 °C -19.9 °C 34198.6 hPa NE 2.6 km/h 5.1 km/h 57 % 0 mm
05:50 -15.7 °C -19.9 °C 34198.6 hPa ENE 5.1 km/h 7.7 km/h 58 % 0 mm
06:05 -15.9 °C -20.1 °C 34198.6 hPa ENE 2.6 km/h 7.7 km/h 58 % 0 mm
06:10 -16 °C -20.2 °C 34198.6 hPa NE 2.6 km/h 7.7 km/h 58 % 0 mm
06:15 -16.1 °C -20.4 °C 34198.6 hPa North 2.6 km/h 2.6 km/h 57 % 0 mm
06:20 -16.1 °C -20.2 °C 34198.6 hPa NNE 7.7 km/h 10.3 km/h 58 % 0 mm
06:35 -16.2 °C -20.4 °C 34198.6 hPa NNE 7.7 km/h 10.3 km/h 58 % 0 mm
06:40 -16.2 °C -20.4 °C 34198.6 hPa NNE 7.7 km/h 15.6 km/h 58 % 0 mm
06:45 -16.2 °C -20.4 °C 34198.6 hPa NNE 2.6 km/h 15.6 km/h 58 % 0 mm
06:50 -16.3 °C -20.4 °C 34198.6 hPa NE 5.1 km/h 7.7 km/h 58 % 0 mm
07:00 -16.4 °C -20.4 °C 34198.6 hPa NE 5.1 km/h 7.7 km/h 59 % 0 mm
07:05 -16.4 °C -20.4 °C 34198.6 hPa NE 5.1 km/h 5.1 km/h 59 % 0 mm
07:10 -16.4 °C -20.4 °C 34198.6 hPa NE 5.1 km/h 7.7 km/h 59 % 0 mm
07:15 -16.4 °C -20.4 °C 34198.6 hPa East 2.6 km/h 7.7 km/h 59 % 0 mm
07:20 -16.4 °C -20.4 °C 34198.6 hPa Calm   7.7 km/h 59 % 0 mm
07:30 -16.3 °C -20.3 °C 34198.6 hPa West 5.1 km/h 10.3 km/h 59 % 0 mm
07:35 -16.3 °C -20.3 °C 34198.6 hPa West 7.7 km/h 10.3 km/h 59 % 0 mm
07:40 -16.1 °C -20 °C 34198.6 hPa WSW 2.6 km/h 7.7 km/h 60 % 0 mm
07:45 -15.9 °C -19.8 °C 34198.6 hPa WNW 7.7 km/h 7.7 km/h 60 % 0 mm
07:50 -15.6 °C -19.6 °C 34198.6 hPa WNW 2.6 km/h 7.7 km/h 60 % 0 mm
07:55 -15.7 °C -19.6 °C 34198.6 hPa WSW 5.1 km/h 10.3 km/h 60 % 0 mm
08:00 -15.8 °C -19.7 °C 34198.6 hPa West 2.6 km/h 10.3 km/h 60 % 0 mm
08:05 -15.8 °C -19.8 °C 34198.6 hPa WNW 5.1 km/h 5.1 km/h 60 % 0 mm
08:10 -15.8 °C -19.7 °C 34198.6 hPa WNW 5.1 km/h 10.3 km/h 60 % 0 mm
08:15 -15.8 °C -19.7 °C 34198.6 hPa West 5.1 km/h 10.3 km/h 60 % 0 mm
08:20 -15.7 °C -19.6 °C 34198.6 hPa West 2.6 km/h 5.1 km/h 60 % 0 mm
08:25 -15.6 °C -19.5 °C 34198.6 hPa WNW 5.1 km/h 5.1 km/h 60 % 0 mm
08:30 -15.4 °C -19.4 °C 34198.6 hPa WNW 2.6 km/h 5.1 km/h 60 % 0 mm
08:35 -15.4 °C -19.3 °C 34198.6 hPa NW 5.1 km/h 7.7 km/h 60 % 0 mm
08:40 -15.1 °C -18.9 °C 34198.6 hPa WNW 2.6 km/h 7.7 km/h 61 % 0 mm
08:45 -14.9 °C -18.8 °C 34198.6 hPa South 2.6 km/h 5.1 km/h 61 % 0 mm
08:50 -14.9 °C -18.8 °C 34198.6 hPa NW 7.7 km/h 7.7 km/h 60 % 0 mm
09:00 -15.2 °C -19.3 °C 34198.6 hPa NNE 7.7 km/h 7.7 km/h 59 % 0 mm
09:05 -15.3 °C -19.3 °C 34198.6 hPa NNE 5.1 km/h 7.7 km/h 59 % 0 mm
09:10 -15.3 °C -19.3 °C 34198.6 hPa NE 5.1 km/h 5.1 km/h 59 % 0 mm
09:20 -15.8 °C -21.6 °C 34327.3 hPa SW 2.6 km/h 2.6 km/h 46 % 0 mm
09:24 -15.3 °C -19.4 °C 34198.6 hPa NNW 6 km/h 6 km/h 59 % 0 mm
09:29 -15.3 °C -19.4 °C 34198.6 hPa NNW 6 km/h 6 km/h 59 % 0 mm
09:34 -15.3 °C -19.6 °C 34198.6 hPa ENE 12.2 km/h 12.2 km/h 58 % 0 mm
09:39 -15.4 °C -19.6 °C 34198.6 hPa ENE 8 km/h 8 km/h 58 % 0 mm
09:44 -15.4 °C -19.6 °C 34164.7 hPa NNW 6 km/h 6 km/h 58 % 0 mm
09:50 -15.3 °C -19.4 °C 34164.7 hPa ENE 12.7 km/h 12.7 km/h 59 % 0 mm
09:55 -15.3 °C -19.4 °C 34164.7 hPa East 9 km/h 9 km/h 59 % 0 mm
10:00 -15.3 °C -19.6 °C 34198.6 hPa North 9 km/h 9 km/h 58 % 0 mm
10:05 -15.3 °C -19.6 °C 34198.6 hPa East 6 km/h 6 km/h 58 % 0 mm
10:10 -15.3 °C -19.4 °C 34198.6 hPa South 3.7 km/h 3.7 km/h 59 % 0 mm
10:15 -15.4 °C -19.6 °C 34198.6 hPa NNE 11.9 km/h 11.9 km/h 58 % 0 mm
10:20 -15.6 °C -19.8 °C 34198.6 hPa NNE 15.3 km/h 15.3 km/h 58 % 0 mm
10:30 -15.6 °C -19.8 °C 34198.6 hPa NE 16.6 km/h 16.6 km/h 58 % 0 mm
10:35 -15.6 °C -19.8 °C 34198.6 hPa NNE 15 km/h 15 km/h 58 % 0 mm
10:40 -15.5 °C -19.6 °C 34198.6 hPa NNE 15 km/h 15 km/h 59 % 0 mm
10:45 -15.4 °C -19.4 °C 34222.3 hPa NE 15 km/h 15 km/h 59 % 0 mm
10:50 -15.3 °C -19.3 °C 34222.3 hPa NE 11.9 km/h 11.9 km/h 59 % 0 mm
10:55 -15.2 °C -19.3 °C 34222.3 hPa WNW 11.9 km/h 11.9 km/h 59 % 0 mm
11:00 -15.2 °C -19.3 °C 34222.3 hPa NE 9 km/h 9 km/h 59 % 0 mm
11:05 -15.2 °C -19.3 °C 34222.3 hPa NNE 20.9 km/h 20.9 km/h 59 % 0 mm
11:10 -15.2 °C -19.3 °C 34222.3 hPa NNW 6 km/h 6 km/h 59 % 0 mm
11:15 -15.2 °C -19.3 °C 34222.3 hPa ENE 10.3 km/h 10.3 km/h 59 % 0 mm
11:20 -15.2 °C -19.4 °C 34222.3 hPa NNE 11.9 km/h 11.9 km/h 58 % 0 mm
11:25 -15.2 °C -19.4 °C 34222.3 hPa ENE 15 km/h 15 km/h 58 % 0 mm
11:30 -15.2 °C -19.4 °C 34198.6 hPa ENE 12.7 km/h 12.7 km/h 58 % 0 mm
11:35 -15.3 °C -19.5 °C 34198.6 hPa ENE 14.5 km/h 14.5 km/h 58 % 0 mm
11:40 -15.3 °C -19.5 °C 34198.6 hPa NNE 11.9 km/h 11.9 km/h 58 % 0 mm
11:45 -15.3 °C -19.3 °C 34198.6 hPa East 6.8 km/h 6.8 km/h 59 % 0 mm
11:50 -15.3 °C -19.4 °C 34198.6 hPa NNE 6 km/h 6.3 km/h 59 % 0 mm
11:55 -15.3 °C -19.3 °C 34198.6 hPa NNE 6 km/h 6 km/h 59 % 0 mm
12:00 -15.2 °C -19.3 °C 34198.6 hPa NNW 11.1 km/h 11.1 km/h 59 % 0 mm
12:05 -15.2 °C -19.3 °C 34198.6 hPa NNE 11.9 km/h 11.9 km/h 59 % 0 mm
12:10 -15.1 °C -19.1 °C 34198.6 hPa ENE 6.3 km/h 6.3 km/h 59 % 0 mm
12:15 -15 °C -19.1 °C 34164.7 hPa NNE 11.9 km/h 11.9 km/h 59 % 0 mm
12:25 -14.9 °C -19.1 °C 34164.7 hPa NNE 8.5 km/h 8.5 km/h 59 % 0 mm
12:30 -14.8 °C -18.9 °C 34198.6 hPa NNE 8.5 km/h 8.5 km/h 59 % 0 mm
12:35 -14.9 °C -19.1 °C 34198.6 hPa NE 6 km/h 6.3 km/h 58 % 0 mm
12:40 -14.8 °C -18.9 °C 34198.6 hPa ENE 6 km/h 6 km/h 59 % 0 mm
12:45 -14.8 °C -19.1 °C 34198.6 hPa ENE 7.6 km/h 7.6 km/h 58 % 0 mm
12:50 -14.8 °C -18.9 °C 34198.6 hPa ENE 5.6 km/h 5.6 km/h 59 % 0 mm
12:55 -14.8 °C -19 °C 34198.6 hPa NE 11.9 km/h 11.9 km/h 58 % 0 mm
13:00 -14.8 °C -19.1 °C 34198.6 hPa NNE 11.9 km/h 11.9 km/h 58 % 0 mm
13:05 -14.9 °C -19.1 °C 34198.6 hPa NNE 11.9 km/h 11.9 km/h 58 % 0 mm
13:11 -14.9 °C -19.1 °C 34198.6 hPa ENE 11.9 km/h 11.9 km/h 58 % 0 mm
13:21 -14.8 °C -19.1 °C 34198.6 hPa East 6 km/h 6 km/h 57 % 0 mm
13:26 -14.7 °C -19.1 °C 34198.6 hPa NNE 11.9 km/h 11.9 km/h 57 % 0 mm
13:31 -14.7 °C -19.1 °C 34198.6 hPa SSW 15 km/h 15 km/h 57 % 0 mm
13:36 -14.7 °C -19.1 °C 34198.6 hPa NNE 15 km/h 15 km/h 57 % 0 mm
13:41 -14.7 °C -19.2 °C 34198.6 hPa NNE 11.9 km/h 11.9 km/h 56 % 0 mm
13:46 -14.7 °C -19.2 °C 34198.6 hPa NNW 7.6 km/h 7.6 km/h 56 % 0 mm
13:51 -14.7 °C -19.2 °C 34198.6 hPa NNW 9 km/h 9 km/h 56 % 0 mm
14:01 -14.6 °C -19.3 °C 34164.7 hPa NNW 9 km/h 9 km/h 55 % 0 mm
14:06 -14.6 °C -19.2 °C 34164.7 hPa NNW 3.1 km/h   55 % 0 mm
14:11 -14.5 °C -19.1 °C 34164.7 hPa West 3.1 km/h 3.1 km/h 55 % 0 mm
14:21 -14.3 °C -19.1 °C 34130.9 hPa ENE 11.9 km/h 11.9 km/h 54 % 0 mm
14:26 -14.3 °C -19.1 °C 34130.9 hPa NNE 17.9 km/h 17.9 km/h 54 % 0 mm
14:31 -14.3 °C -19.1 °C 34130.9 hPa SSE 6 km/h 7.6 km/h 54 % 0 mm
14:36 -14.2 °C -19 °C 34130.9 hPa SW 11.9 km/h 11.9 km/h 54 % 0 mm
14:41 -14.1 °C -18.9 °C 34130.9 hPa NNW 9 km/h 9 km/h 54 % 0 mm
14:46 -14.1 °C -18.9 °C 34130.9 hPa NE 9 km/h 9 km/h 54 % 0 mm
14:51 -14.1 °C -18.9 °C 34130.9 hPa NW 11.9 km/h 11.9 km/h 54 % 0 mm
14:56 -14 °C -18.9 °C 34130.9 hPa WSW 6 km/h 6 km/h 53 % 0 mm
15:01 -13.9 °C -18.8 °C 34130.9 hPa South 9 km/h 9 km/h 53 % 0 mm
15:06 -13.8 °C -18.9 °C 34130.9 hPa ENE 15 km/h 15 km/h 52 % 0 mm
15:11 -13.9 °C -19 °C 34130.9 hPa NE 15 km/h 15 km/h 52 % 0 mm
15:16 -13.9 °C -19 °C 34130.9 hPa NNW 9.8 km/h 9.8 km/h 52 % 0 mm
15:26 -13.9 °C -19 °C 34130.9 hPa NE 15 km/h 15 km/h 52 % 0 mm
15:31 -13.8 °C -18.9 °C 34130.9 hPa NNE 11.6 km/h 11.6 km/h 52 % 0 mm
15:36 -13.7 °C -18.9 °C 34130.9 hPa NE 6 km/h 6 km/h 51 % 0 mm
15:41 -13.5 °C -18.8 °C 34130.9 hPa SSW 6 km/h 6 km/h 51 % 0 mm
15:51 -13.6 °C -18.8 °C 34130.9 hPa WNW 6 km/h 6 km/h 51 % 0 mm
15:56 -13.6 °C -18.9 °C 34130.9 hPa East 9 km/h 9 km/h 51 % 0 mm
16:01 -13.8 °C -19.1 °C 34130.9 hPa NNE 9 km/h 9 km/h 51 % 0 mm
16:06 -13.9 °C -19.3 °C 34130.9 hPa WSW 16.6 km/h 16.6 km/h 50 % 0 mm
16:11 -13.9 °C -19.3 °C 34130.9 hPa WNW 6 km/h 6 km/h 50 % 0 mm
16:16 -14 °C -19.4 °C 34164.7 hPa WNW 6 km/h 6 km/h 50 % 0 mm
16:21 -14.1 °C -19.4 °C 34164.7 hPa West 3.1 km/h   50 % 0 mm
16:26 -14.1 °C -19.5 °C 34164.7 hPa WNW 3.1 km/h 3.1 km/h 50 % 0 mm
16:31 -14.2 °C -19.6 °C 34198.6 hPa NNE 6 km/h 6 km/h 50 % 0 mm
16:36 -14.2 °C -19.6 °C 34198.6 hPa NNE 6 km/h 6 km/h 50 % 0 mm
16:41 -14.3 °C -19.7 °C 34198.6 hPa WNW 6 km/h 6 km/h 50 % 0 mm
16:46 -14.3 °C -19.7 °C 34198.6 hPa Calm     50 % 0 mm
17:01 -14.5 °C -19.7 °C 34198.6 hPa ESE 11.9 km/h 11.9 km/h 51 % 0 mm
17:11 -14.6 °C -19.7 °C 34198.6 hPa ESE 15 km/h 15 km/h 52 % 0 mm
17:16 -14.7 °C -19.6 °C 34198.6 hPa ENE 15 km/h 15 km/h 53 % 0 mm
17:21 -14.8 °C -19.6 °C 34198.6 hPa ENE 9 km/h 9 km/h 54 % 0 mm
17:31 -15 °C -19.5 °C 34198.6 hPa East 9 km/h 9 km/h 56 % 0 mm
17:36 -15.1 °C -19.6 °C 34198.6 hPa East 6 km/h 6 km/h 56 % 0 mm
17:46 -15.3 °C -19.8 °C 34222.3 hPa NNE 15.3 km/h 15.3 km/h 56 % 0 mm
17:47 -15.3 °C -19.8 °C 34222.3 hPa ENE 15 km/h 15 km/h 56 % 0 mm
18:02 -15.4 °C -19.8 °C 34198.6 hPa ENE 9 km/h 9 km/h 56 % 0 mm
18:07 -15.4 °C -19.7 °C 34198.6 hPa NE 6 km/h 6 km/h 57 % 0 mm
18:12 -15.4 °C -19.8 °C 34198.6 hPa NNE 4.2 km/h   57 % 0 mm
18:17 -15.4 °C -19.8 °C 34222.3 hPa Calm     57 % 0 mm
18:22 -15.5 °C -19.8 °C 34222.3 hPa Calm     57 % 0 mm
18:23 -15.5 °C -19.8 °C 34222.3 hPa Calm     57 % 0 mm
18:28 -15.6 °C -19.9 °C 34222.3 hPa Calm     57 % 0 mm
18:33 -15.7 °C -19.8 °C 34222.3 hPa NE 4.2 km/h 4.2 km/h 58 % 0 mm
18:38 -15.7 °C -19.9 °C 34222.3 hPa Calm     58 % 0 mm
18:48 -15.8 °C -20 °C 34256.2 hPa Calm     58 % 0 mm
19:03 -15.9 °C -19.8 °C 34256.2 hPa Calm     60 % 0 mm
19:08 -16 °C -19.9 °C 34256.2 hPa Calm     60 % 0 mm
19:13 -16.2 °C -20.2 °C 34256.2 hPa SW 6 km/h 6 km/h 59 % 0 mm
19:29 -16.3 °C -20.2 °C 34256.2 hPa West 6.3 km/h 6.3 km/h 60 % 0 mm
19:34 -16.3 °C -20.2 °C 34256.2 hPa Calm     60 % 0 mm
19:35 -16.3 °C -20.1 °C 34256.2 hPa ENE 3.1 km/h   61 % 0 mm
19:40 -16.4 °C -20.2 °C 34256.2 hPa ENE 3.1 km/h   61 % 0 mm
19:45 -16.4 °C -20.1 °C 34293.4 hPa East 6 km/h 6 km/h 62 % 0 mm
19:50 -16.4 °C -20.2 °C 34293.4 hPa WSW 6 km/h 6 km/h 61 % 0 mm
19:55 -16.4 °C -20.1 °C 34293.4 hPa Calm     62 % 0 mm
20:00 -16.4 °C -20.1 °C 34327.3 hPa Calm     62 % 0 mm
20:08 -16.5 °C -20.1 °C 34327.3 hPa SW 6 km/h 6 km/h 62 % 0 mm
20:13 -16.7 °C -20.3 °C 34327.3 hPa SW 3.1 km/h   62 % 0 mm
20:18 -16.6 °C -20.2 °C 34293.4 hPa Calm     62 % 0 mm
20:23 -16.6 °C -20.2 °C 34293.4 hPa SW 6 km/h 6 km/h 62 % 0 mm
20:28 -16.7 °C -20.2 °C 34293.4 hPa Calm     63 % 0 mm
20:33 -16.6 °C -20.1 °C 34327.3 hPa Calm     63 % 0 mm
20:38 -16.6 °C -20.1 °C 34327.3 hPa WSW 3.1 km/h 3.1 km/h 63 % 0 mm
20:43 -16.4 °C -20.1 °C 34327.3 hPa WNW 6 km/h 6 km/h 62 % 0 mm
20:48 -16.5 °C -20.1 °C 34327.3 hPa SW 6 km/h 6 km/h 63 % 0 mm
20:53 -16.7 °C -20.2 °C 34327.3 hPa Calm     63 % 0 mm
21:03 -17 °C -20.6 °C 34327.3 hPa WSW 6 km/h 6.3 km/h 62 % 0 mm
21:13 -17.2 °C -20.8 °C 34327.3 hPa SW 6 km/h 6 km/h 62 % 0 mm
21:18 -17.2 °C -20.9 °C 34327.3 hPa WSW 6 km/h 6 km/h 61 % 0 mm
21:28 -17.1 °C -20.8 °C 34327.3 hPa WSW 3.1 km/h 3.1 km/h 61 % 0 mm
21:33 -17.1 °C -20.8 °C 34327.3 hPa SW 6 km/h 6 km/h 61 % 0 mm
21:38 -17.2 °C -20.9 °C 34327.3 hPa SW 6 km/h 6 km/h 61 % 0 mm
21:44 -17.2 °C -21.1 °C 34327.3 hPa West 6.8 km/h 6.8 km/h 60 % 0 mm
21:49 -16.9 °C -21.3 °C 34327.3 hPa West 11.1 km/h 11.1 km/h 56 % 0 mm
22:04 -16.8 °C -21.7 °C 34327.3 hPa ENE 3.1 km/h   52 % 0 mm
22:09 -16.8 °C -21.7 °C 34327.3 hPa ENE 6 km/h 6 km/h 52 % 0 mm
22:14 -16.9 °C -21.9 °C 34327.3 hPa ENE 3.1 km/h 3.1 km/h 51 % 0 mm
22:19 -16.9 °C -22 °C 34327.3 hPa East 6 km/h 6 km/h 51 % 0 mm
22:24 -17 °C -22.1 °C 34327.3 hPa ENE 3.1 km/h 3.1 km/h 51 % 0 mm
22:29 -17.1 °C -22.1 °C 34327.3 hPa NNE 8 km/h 8 km/h 51 % 0 mm
22:34 -17 °C -22.2 °C 34327.3 hPa North 3.1 km/h   50 % 0 mm
22:45 -16.6 °C -21.8 °C 34327.3 hPa West 9 km/h 9 km/h 50 % 0 mm
22:50 -16.5 °C -21.8 °C 34327.3 hPa SW 9 km/h 9 km/h 49 % 0 mm
22:55 -16.4 °C -21.8 °C 34327.3 hPa SW 9.8 km/h 9.8 km/h 49 % 0 mm
22:59 -16.4 °C -21.8 °C 34327.3 hPa WSW 7.6 km/h 7.6 km/h 49 % 0 mm
23:05 -16.4 °C -21.9 °C 34327.3 hPa WSW 11.9 km/h 11.9 km/h 48 % 0 mm
23:10 -16.4 °C -22.1 °C 34327.3 hPa West 6 km/h 6 km/h 47 % 0 mm
23:15 -16.4 °C -22.1 °C 34327.3 hPa West 6 km/h 6 km/h 47 % 0 mm
23:19 -16.3 °C -22.2 °C 34327.3 hPa West 6 km/h 6 km/h 46 % 0 mm
23:25 -16.3 °C -22.3 °C 34327.3 hPa Calm     45 % 0 mm
23:30 -16.4 °C -22.4 °C 34327.3 hPa WSW 4.2 km/h 4.2 km/h 45 % 0 mm
23:35 -16.4 °C -22.4 °C 34327.3 hPa West 3.1 km/h   45 % 0 mm
23:40 -16.4 °C -22.6 °C 34327.3 hPa WNW 3.1 km/h   44 % 0 mm
23:45 -16.5 °C -22.6 °C 34327.3 hPa West 6.8 km/h   44 % 0 mm
23:49 -16.6 °C -22.5 °C 34327.3 hPa WSW 12.7 km/h 12.7 km/h 45 % 0 mm
23:54 -16.5 °C -22.6 °C 34327.3 hPa WSW 9 km/h 9.3 km/h 44 % 0 mm
23:59 -16.4 °C -22.6 °C 34327.3 hPa West 11.9 km/h 11.9 km/h 44 % 0 mm
Meteo Sesrovires
Elogis d' Weather Underground - 1.75 mb

Guio original per  Jim McMurry - jmcmurry@mwt.net Adaptat per a la plantilla per  Wim van der Kuil - Leuven-Template.eu

Trobareu la nostra informacio del temps tambe a:

Weather Underground

AWEKAS